Time;durP1;ratioP1;P1;durP2;ratioP2;P2;SDS_P1;SDS_P2;PMS_P1;PMS_P2;Temp;Humidity;BMP_temperature;BMP_pressure;BME280_temperature;BME280_humidity;BME280_pressure;Samples;Min_cycle;Max_cycle;Signal;HPM_P1;HPM_P2
2023/01/29 00:00:09;;;;;;;;;69.50;57.75;;;;;2.48;63.98;102194.22;5075378;27;48014;-69
2023/01/29 00:02:37;;;;;;;;;51.50;43.25;;;;;2.44;63.80;102188.13;5074520;27;45487;-70
2023/01/29 00:05:04;;;;;;;;;53.75;44.00;;;;;2.43;62.95;102188.97;5056955;27;45355;-71
2023/01/29 00:07:29;;;;;;;;;62.75;52.75;;;;;2.40;62.90;102183.72;5075389;27;45223;-71
2023/01/29 00:09:55;;;;;;;;;51.00;45.50;;;;;2.34;63.14;102188.78;5074640;27;46260;-71
2023/01/29 00:12:20;;;;;;;;;57.25;46.25;;;;;2.21;63.88;102163.41;5074383;27;45421;-70
2023/01/29 00:14:46;;;;;;;;;54.50;44.50;;;;;2.32;63.18;102187.88;5074751;27;45377;-70
2023/01/29 00:17:11;;;;;;;;;48.50;42.75;;;;;2.32;63.24;102185.28;5075221;27;45323;-70
2023/01/29 00:19:36;;;;;;;;;52.25;46.00;;;;;2.27;64.30;102181.72;5075040;28;45539;-71
2023/01/29 00:22:05;;;;;;;;;47.00;41.25;;;;;1.97;63.59;102131.78;5003417;28;46002;-72
2023/01/29 00:24:30;;;;;;;;;59.25;45.25;;;;;2.19;64.42;102184.16;5073777;28;45451;-72
2023/01/29 00:26:55;;;;;;;;;50.50;44.00;;;;;2.16;63.49;102182.38;5074760;27;45381;-69
2023/01/29 00:29:21;;;;;;;;;50.75;43.25;;;;;2.14;63.79;102184.06;5074365;27;45377;-70
2023/01/29 00:31:46;;;;;;;;;49.00;42.25;;;;;2.11;64.53;102176.19;5073472;27;50526;-69
2023/01/29 00:34:12;;;;;;;;;57.00;48.00;;;;;2.03;64.04;102163.06;5073710;27;45336;-70
2023/01/29 00:36:37;;;;;;;;;59.50;47.25;;;;;2.11;64.10;102167.53;5073548;28;45418;-72
2023/01/29 00:39:09;;;;;;;;;57.75;47.50;;;;;2.11;64.88;102171.00;5035271;28;47118;-70
2023/01/29 00:47:29;;;;;;;;;51.00;43.75;;;;;2.06;64.63;102153.59;5075220;28;45295;-71
2023/01/29 00:49:49;;;;;;;;;51.00;41.75;;;;;2.09;65.00;102164.03;5073183;28;45346;-71
2023/01/29 00:52:24;;;;;;;;;47.25;41.25;;;;;2.00;64.60;102159.50;5073448;27;45326;-70
2023/01/29 00:54:53;;;;;;;;;54.75;47.50;;;;;1.77;65.20;102128.75;5051420;27;45484;-70
2023/01/29 00:57:19;;;;;;;;;52.00;42.25;;;;;2.02;64.23;102176.00;5030302;28;45397;-72
2023/01/29 00:59:44;;;;;;;;;56.75;45.75;;;;;1.98;65.23;102169.88;5072479;27;46273;-71
2023/01/29 01:04:54;;;;;;;;;47.50;41.25;;;;;1.94;64.74;102164.56;5076692;28;45374;-70
2023/01/29 01:07:19;;;;;;;;;61.00;49.50;;;;;1.65;65.30;102113.84;5078263;27;45574;-71
2023/01/29 01:12:29;;;;;;;;;47.25;42.75;;;;;1.95;65.21;102161.13;5078492;28;45408;-71
2023/01/29 01:14:55;;;;;;;;;67.75;51.75;;;;;1.94;65.27;102155.09;5079162;28;45290;-70
2023/01/29 01:17:20;;;;;;;;;65.75;55.75;;;;;1.94;65.69;102155.09;5079504;27;45531;-70
2023/01/29 01:19:46;;;;;;;;;55.50;46.00;;;;;1.65;65.97;102107.75;5077927;27;46098;-69
2023/01/29 01:22:11;;;;;;;;;59.25;47.50;;;;;1.95;64.94;102166.31;5078487;27;45457;-72
2023/01/29 01:24:37;;;;;;;;;61.00;50.50;;;;;1.96;65.62;102168.06;5078415;27;45261;-71
2023/01/29 01:27:03;;;;;;;;;48.00;42.25;;;;;1.80;66.10;102141.81;5078097;27;45533;-69
2023/01/29 01:29:29;;;;;;;;;53.25;44.00;;;;;1.87;66.00;102155.81;5079939;27;46579;-71
2023/01/29 01:31:54;;;;;;;;;58.00;45.25;;;;;1.87;65.94;102158.41;5077463;27;45623;-71
2023/01/29 01:34:21;;;;;;;;;60.00;48.75;;;;;1.80;65.68;102156.50;5077167;27;45334;-72
2023/01/29 01:36:46;;;;;;;;;56.50;46.25;;;;;1.77;65.55;102162.50;5096453;27;45381;-70
2023/01/29 01:39:12;;;;;;;;;58.00;49.50;;;;;1.78;66.57;102171.16;5075938;28;48422;-70
2023/01/29 01:41:37;;;;;;;;;61.00;48.75;;;;;1.77;66.62;102162.50;5077137;27;45440;-70
2023/01/29 01:44:05;;;;;;;;;62.25;48.50;;;;;1.75;66.58;102162.47;5075797;28;45346;-69
2023/01/29 01:46:33;;;;;;;;;60.75;48.00;;;;;1.74;66.23;102165.03;5077540;27;45188;-69
2023/01/29 01:49:18;;;;;;;;;51.75;42.75;;;;;1.73;66.68;102165.88;5077151;27;46358;-70
2023/01/29 01:51:47;;;;;;;;;54.00;45.50;;;;;1.70;66.59;102168.38;5077453;27;45346;-71
2023/01/29 01:54:20;;;;;;;;;52.00;46.25;;;;;1.68;66.25;102173.56;5079547;28;45435;-70
2023/01/29 01:57:03;;;;;;;;;57.50;47.75;;;;;1.64;66.69;102165.66;5080179;28;45287;-70
2023/01/29 01:59:31;;;;;;;;;57.25;47.75;;;;;1.66;66.07;102158.78;5078252;27;45461;-70
2023/01/29 02:01:57;;;;;;;;;54.75;45.75;;;;;1.62;66.78;102162.16;5078211;28;45421;-71
2023/01/29 02:10:14;;;;;;;;;62.50;51.50;;;;;1.60;67.16;102175.13;5077615;28;45796;-70
2023/01/29 02:12:40;;;;;;;;;49.25;44.00;;;;;1.58;67.12;102182.84;5076996;27;45224;-71
2023/01/29 02:15:06;;;;;;;;;60.00;48.75;;;;;1.51;67.00;102172.28;5078317;27;45189;-71
2023/01/29 02:17:31;;;;;;;;;55.50;45.75;;;;;1.55;66.87;102184.47;5077451;27;45220;-72
2023/01/29 02:19:57;;;;;;;;;57.50;45.50;;;;;1.52;66.84;102172.31;5076742;27;45263;-69
2023/01/29 02:22:37;;;;;;;;;46.50;42.00;;;;;1.53;67.43;102179.28;5075477;28;45303;-70
2023/01/29 02:26:01;;;;;;;;;60.25;48.75;;;;;1.51;66.90;102174.88;5079357;28;45440;-70
2023/01/29 02:28:51;;;;;;;;;51.50;45.25;;;;;1.49;67.71;102181.75;5043927;27;45622;-69
2023/01/29 02:31:36;;;;;;;;;56.50;47.25;;;;;1.49;67.41;102172.25;5046921;27;45502;-71
2023/01/29 02:34:27;;;;;;;;;56.25;48.00;;;;;1.45;67.63;102167.84;5076627;27;45285;-70
2023/01/29 02:37:12;;;;;;;;;56.75;47.75;;;;;1.42;67.77;102171.22;5074969;28;45473;-70
2023/01/29 02:39:50;;;;;;;;;58.50;48.25;;;;;1.39;67.69;102178.06;5077079;27;45334;-69
2023/01/29 02:42:27;;;;;;;;;55.25;45.00;;;;;1.34;68.08;102187.47;5092288;27;45952;-69
2023/01/29 02:44:59;;;;;;;;;56.50;49.25;;;;;1.31;68.21;102173.59;5076556;27;45255;-70
2023/01/29 02:47:45;;;;;;;;;57.25;49.25;;;;;1.31;67.77;102176.16;5075011;28;45258;-70
2023/01/29 02:50:32;;;;;;;;;64.00;50.50;;;;;1.31;67.83;102163.22;5078341;27;45211;-71
2023/01/29 02:53:12;;;;;;;;;60.00;49.75;;;;;1.25;67.90;102152.69;5076345;27;46267;-71
2023/01/29 02:56:02;;;;;;;;;56.50;48.00;;;;;1.29;68.34;102162.31;5076247;27;45429;-69
2023/01/29 02:58:41;;;;;;;;;57.25;47.75;;;;;1.28;68.02;102163.13;5076079;27;45399;-71
2023/01/29 03:01:19;;;;;;;;;58.75;48.50;;;;;1.23;68.61;102146.59;5077219;28;45349;-70
2023/01/29 03:03:54;;;;;;;;;63.00;51.00;;;;;1.22;68.60;102139.66;5076697;27;45268;-70
2023/01/29 03:06:22;;;;;;;;;55.00;46.00;;;;;1.21;68.45;102135.31;5076172;27;45416;-71
2023/01/29 03:09:03;;;;;;;;;59.25;47.75;;;;;1.26;68.55;102138.00;5075867;27;45302;-71
2023/01/29 03:11:39;;;;;;;;;58.00;48.50;;;;;1.23;68.55;102137.94;5076119;27;45367;-70
2023/01/29 03:14:22;;;;;;;;;59.00;49.75;;;;;1.22;68.37;102143.94;5076687;27;45585;-70
2023/01/29 03:16:53;;;;;;;;;59.25;50.00;;;;;1.19;68.95;102136.09;5077950;27;45315;-71
2023/01/29 03:19:40;;;;;;;;;54.50;46.00;;;;;1.21;68.66;102143.09;5093204;27;45228;-70
2023/01/29 03:22:08;;;;;;;;;56.00;46.50;;;;;1.14;68.98;102144.66;5078285;27;45361;-71
2023/01/29 03:33:17;;;;;;;;;58.25;50.25;;;;;1.14;69.69;102139.47;5076126;28;45222;-70
2023/01/29 03:35:50;;;;;;;;;57.25;46.50;;;;;1.16;69.53;102136.94;5075414;27;46323;-70
2023/01/29 03:38:16;;;;;;;;;56.25;47.50;;;;;1.13;69.41;102126.47;5075430;27;45335;-71
2023/01/29 03:41:03;;;;;;;;;48.00;43.00;;;;;1.15;69.38;102132.59;5075743;28;45327;-70
2023/01/29 03:43:34;;;;;;;;;58.50;47.75;;;;;1.19;69.77;102138.69;5075876;27;45374;-70
2023/01/29 03:46:07;;;;;;;;;55.50;48.25;;;;;1.21;69.48;102139.59;5076188;27;45464;-69
2023/01/29 03:48:42;;;;;;;;;58.00;49.00;;;;;1.15;69.28;102136.03;5076796;27;45321;-71
2023/01/29 03:51:28;;;;;;;;;57.75;47.75;;;;;1.17;69.81;102138.69;5076228;27;45192;-69
2023/01/29 03:54:03;;;;;;;;;58.25;47.50;;;;;1.15;69.27;102132.59;5075715;27;45318;-70
2023/01/29 03:56:55;;;;;;;;;54.50;46.25;;;;;1.13;69.18;102142.91;5073599;28;46248;-70
2023/01/29 03:59:32;;;;;;;;;58.25;47.75;;;;;1.14;69.93;102136.88;5075227;27;45303;-71
2023/01/29 04:02:02;;;;;;;;;64.50;54.25;;;;;1.10;69.67;102136.78;5074987;27;45242;-71
2023/01/29 04:04:34;;;;;;;;;59.75;49.25;;;;;1.07;70.04;102134.13;5076008;27;45314;-71
2023/01/29 04:07:10;;;;;;;;;54.25;47.00;;;;;1.03;69.49;102133.16;5075693;27;46168;-71
2023/01/29 04:09:44;;;;;;;;;67.75;55.00;;;;;0.98;69.79;102143.38;5075193;27;45323;-71
2023/01/29 04:12:13;;;;;;;;;52.50;43.75;;;;;0.94;70.28;102136.38;5075505;27;45391;-71
2023/01/29 04:14:39;;;;;;;;;58.00;48.25;;;;;0.90;69.93;102134.53;5075312;27;45307;-71
2023/01/29 04:17:31;;;;;;;;;55.00;46.50;;;;;0.91;70.56;102143.22;5074895;27;47156;-69
2023/01/29 04:19:58;;;;;;;;;55.75;45.75;;;;;0.89;70.73;102134.53;5074805;27;45322;-70
2023/01/29 04:22:30;;;;;;;;;44.75;41.00;;;;;0.87;70.25;102129.28;5074950;27;45263;-69
2023/01/29 04:25:01;;;;;;;;;57.00;47.50;;;;;0.84;70.23;102130.09;5075204;27;45370;-71
2023/01/29 04:27:44;;;;;;;;;51.75;46.25;;;;;0.86;70.78;102132.72;5075291;27;46263;-71
2023/01/29 04:30:15;;;;;;;;;53.50;46.00;;;;;0.88;70.55;102141.41;5074840;28;45398;-72
2023/01/29 04:32:55;;;;;;;;;59.50;48.50;;;;;0.87;70.42;102143.13;5075163;27;45421;-71
2023/01/29 04:35:24;;;;;;;;;58.25;49.50;;;;;0.89;71.17;102150.94;5077913;27;45309;-70
2023/01/29 04:38:17;;;;;;;;;59.50;48.25;;;;;0.90;70.70;102139.72;5078287;28;45564;-71
2023/01/29 04:41:26;;;;;;;;;52.50;45.50;;;;;0.89;71.02;102147.47;5077980;27;45365;-70
2023/01/29 04:44:07;;;;;;;;;57.00;47.75;;;;;0.84;71.04;102130.09;5078473;27;45478;-69
2023/01/29 04:46:45;;;;;;;;;58.50;47.75;;;;;0.87;70.79;102144.84;5077265;28;45953;-70
2023/01/29 04:49:17;;;;;;;;;63.25;52.00;;;;;0.85;71.05;102146.50;5077580;28;46263;-70
2023/01/29 04:52:15;;;;;;;;;54.75;45.50;;;;;0.83;71.29;102155.97;5079384;27;45281;-71
2023/01/29 04:55:05;;;;;;;;;52.00;46.50;;;;;0.81;71.24;102155.03;5055829;27;45438;-69
2023/01/29 04:58:04;;;;;;;;;63.25;50.00;;;;;0.79;71.18;102157.59;5077270;28;45575;-69
2023/01/29 05:00:34;;;;;;;;;56.50;49.50;;;;;0.79;71.28;102162.78;5078241;27;46362;-70
2023/01/29 05:03:00;;;;;;;;;61.00;51.75;;;;;0.73;71.87;102154.88;5078302;27;45384;-70
2023/01/29 05:05:27;;;;;;;;;66.25;49.50;;;;;0.78;71.51;102166.22;5078198;27;45234;-71
2023/01/29 05:07:54;;;;;;;;;57.50;49.50;;;;;0.73;71.43;102158.31;5078358;28;45231;-71
2023/01/29 05:10:22;;;;;;;;;56.50;49.00;;;;;0.71;71.81;102153.94;5078779;28;46594;-71
2023/01/29 05:12:53;;;;;;;;;62.75;53.50;;;;;0.76;71.73;102161.81;5079330;28;45404;-70
2023/01/29 05:15:25;;;;;;;;;63.50;51.75;;;;;0.75;71.71;102150.59;5078495;27;45315;-70
2023/01/29 05:17:52;;;;;;;;;64.50;54.00;;;;;0.76;71.54;102148.88;5080547;27;45484;-70
2023/01/29 05:20:18;;;;;;;;;63.75;51.25;;;;;0.74;71.95;102141.06;5078748;27;45432;-70
2023/01/29 05:22:47;;;;;;;;;56.75;49.00;;;;;0.82;71.96;102143.84;5080186;28;45165;-70
2023/01/29 05:25:23;;;;;;;;;65.00;51.25;;;;;0.84;71.67;102144.75;5078226;27;45337;-71
2023/01/29 05:30:36;;;;;;;;;57.00;47.25;;;;;0.78;71.60;102132.53;5077739;28;45763;-70
2023/01/29 05:33:02;;;;;;;;;61.50;49.50;;;;;0.84;71.81;102145.66;5093298;27;45278;-69
2023/01/29 05:35:28;;;;;;;;;51.50;45.50;;;;;0.78;71.67;102129.94;5077943;27;45256;-71
2023/01/29 05:37:55;;;;;;;;;57.00;48.75;;;;;0.70;71.96;102105.56;5076914;28;45447;-70
2023/01/29 05:40:21;;;;;;;;;66.25;50.25;;;;;0.82;71.81;102131.78;5078331;27;46383;-70
2023/01/29 05:42:46;;;;;;;;;60.00;50.75;;;;;0.82;71.66;102142.16;5080298;27;45369;-71
2023/01/29 05:45:11;;;;;;;;;58.25;48.00;;;;;0.82;72.07;102138.66;5077981;27;45330;-70
2023/01/29 05:47:37;;;;;;;;;60.25;50.50;;;;;0.82;71.96;102146.44;5010568;27;45529;-71
2023/01/29 05:50:02;;;;;;;;;62.50;49.00;;;;;0.82;71.22;102151.63;4974172;28;46161;-69
2023/01/29 05:52:28;;;;;;;;;61.75;49.25;;;;;0.77;72.00;102138.56;4972398;28;45394;-68
2023/01/29 05:54:53;;;;;;;;;61.50;49.75;;;;;0.78;71.92;102134.25;4973866;28;45442;-68
2023/01/29 05:57:18;;;;;;;;;65.00;50.00;;;;;0.79;71.62;102136.88;4974396;28;45383;-68
2023/01/29 05:59:44;;;;;;;;;55.25;47.00;;;;;0.76;71.66;102138.50;4964283;28;46081;-70
2023/01/29 06:02:09;;;;;;;;;57.00;44.25;;;;;0.77;71.66;102142.84;4966260;28;55603;-68
2023/01/29 06:04:34;;;;;;;;;58.25;46.25;;;;;0.78;71.88;102137.72;4972988;28;45327;-69
2023/01/29 06:07:02;;;;;;;;;63.00;49.75;;;;;0.76;71.89;102136.81;4976495;28;45429;-68
2023/01/29 06:09:27;;;;;;;;;58.25;46.50;;;;;0.80;71.90;102138.63;4975562;28;46982;-69
2023/01/29 06:11:53;;;;;;;;;60.00;50.75;;;;;0.80;71.79;102150.69;4974509;28;45389;-71
2023/01/29 06:14:18;;;;;;;;;54.25;45.75;;;;;0.78;72.14;102139.41;4975750;28;45387;-68
2023/01/29 06:16:43;;;;;;;;;58.00;48.50;;;;;0.83;72.45;102148.19;4976909;28;45604;-70
2023/01/29 06:19:09;;;;;;;;;63.25;51.75;;;;;0.81;71.93;102150.75;4975910;28;54380;-68
2023/01/29 06:21:34;;;;;;;;;49.50;41.75;;;;;0.80;71.91;102153.28;4974223;28;45262;-70
2023/01/29 06:24:00;;;;;;;;;57.75;50.00;;;;;0.78;72.09;102152.38;4973094;28;45443;-69
2023/01/29 06:26:25;;;;;;;;;58.25;48.50;;;;;0.77;72.19;102159.28;4976186;28;45404;-70
2023/01/29 06:28:50;;;;;;;;;61.25;48.50;;;;;0.83;71.85;102159.44;4975874;28;45432;-70
2023/01/29 06:31:15;;;;;;;;;57.25;48.75;;;;;0.83;72.21;102163.72;4976923;28;45314;-69
2023/01/29 06:33:41;;;;;;;;;52.50;46.25;;;;;0.86;72.41;102169.00;4976366;28;45569;-69
2023/01/29 06:36:06;;;;;;;;;55.75;47.75;;;;;0.86;72.33;102164.69;4991708;27;48479;-69
2023/01/29 06:38:32;;;;;;;;;60.50;48.75;;;;;0.90;72.31;102169.97;4976959;28;45401;-68
2023/01/29 06:40:57;;;;;;;;;59.50;50.25;;;;;0.91;72.13;102171.72;4977219;28;45340;-69
2023/01/29 06:43:23;;;;;;;;;55.75;47.25;;;;;0.92;72.04;102171.72;4973281;28;45520;-70
2023/01/29 06:45:54;;;;;;;;;58.25;48.50;;;;;0.93;72.29;102175.22;4974253;28;45574;-69
2023/01/29 06:48:21;;;;;;;;;51.25;45.75;;;;;0.89;71.99;102160.44;4973005;28;45406;-67
2023/01/29 06:50:48;;;;;;;;;63.50;50.50;;;;;0.90;72.34;102164.78;4971381;28;45893;-68
2023/01/29 06:53:14;;;;;;;;;58.25;49.75;;;;;0.94;72.35;102170.06;4969414;28;45407;-70
2023/01/29 06:55:39;;;;;;;;;58.00;49.50;;;;;0.96;71.78;102157.16;4957633;28;45316;-70
2023/01/29 06:58:08;;;;;;;;;58.75;47.75;;;;;0.98;72.11;102153.75;4953141;28;47942;-70
2023/01/29 07:00:35;;;;;;;;;66.25;52.25;;;;;1.02;72.36;102163.34;4962955;28;45406;-68
2023/01/29 07:03:00;;;;;;;;;53.50;47.00;;;;;1.02;72.24;102171.13;4971277;28;45382;-70
2023/01/29 07:05:26;;;;;;;;;56.25;48.50;;;;;1.04;72.41;102167.69;4973920;28;45384;-69
2023/01/29 07:07:51;;;;;;;;;60.75;50.50;;;;;1.06;72.06;102168.59;4972370;28;47093;-69
2023/01/29 07:10:17;;;;;;;;;58.25;48.50;;;;;1.02;71.64;102162.50;4972423;28;45359;-69
2023/01/29 07:12:42;;;;;;;;;58.50;47.50;;;;;1.03;72.30;102172.03;4972711;28;45334;-69
2023/01/29 07:15:08;;;;;;;;;46.75;41.50;;;;;1.05;72.29;102170.34;4974068;28;45593;-69
2023/01/29 07:17:33;;;;;;;;;57.25;48.00;;;;;1.03;72.18;102172.03;4973159;28;45306;-69
2023/01/29 07:19:58;;;;;;;;;33.00;29.25;;;;;0.99;72.09;102170.19;4973222;28;45304;-70
2023/01/29 07:22:24;;;;;;;;;58.75;45.50;;;;;0.97;71.89;102167.53;4972155;28;45936;-70
2023/01/29 07:24:49;;;;;;;;;50.00;44.25;;;;;0.94;72.30;102164.88;4973734;28;45302;-69
2023/01/29 07:27:14;;;;;;;;;61.50;51.00;;;;;0.99;72.10;102167.59;4973174;28;45215;-68
2023/01/29 07:29:40;;;;;;;;;54.50;46.75;;;;;1.01;72.37;102163.34;4972222;28;45232;-70
2023/01/29 07:32:06;;;;;;;;;49.75;42.25;;;;;1.05;72.04;102161.69;4972354;28;45360;-68
2023/01/29 07:34:31;;;;;;;;;57.25;47.00;;;;;1.07;72.39;102167.81;5043632;28;45297;-70
2023/01/29 07:36:57;;;;;;;;;51.25;45.25;;;;;1.10;72.14;102166.16;5055019;28;45287;-69
2023/01/29 07:39:22;;;;;;;;;51.25;45.50;;;;;1.10;72.04;102160.97;5049300;28;45319;-69
2023/01/29 07:41:47;;;;;;;;;53.75;45.25;;;;;1.12;71.86;102171.38;4972575;28;45325;-69
2023/01/29 07:44:13;;;;;;;;;59.75;47.75;;;;;1.09;72.54;102158.34;4974189;28;45599;-68
2023/01/29 07:46:38;;;;;;;;;54.00;46.50;;;;;1.15;72.49;102166.28;4974641;28;45335;-68
2023/01/29 07:49:04;;;;;;;;;59.25;48.00;;;;;1.16;72.12;102168.03;4972965;28;45320;-68
2023/01/29 07:51:29;;;;;;;;;50.00;44.25;;;;;1.19;72.13;102177.56;4972292;28;45338;-69
2023/01/29 07:53:54;;;;;;;;;46.50;42.25;;;;;1.19;72.40;102170.69;4973369;28;45659;-70
2023/01/29 07:56:19;;;;;;;;;55.00;46.00;;;;;1.24;72.37;102174.28;4970788;28;55199;-72
2023/01/29 07:58:45;;;;;;;;;56.50;47.50;;;;;1.26;72.13;102172.59;4972858;28;45426;-69
2023/01/29 08:01:10;;;;;;;;;48.75;43.50;;;;;1.26;72.23;102171.69;4958679;28;45446;-69
2023/01/29 08:03:35;;;;;;;;;57.25;49.25;;;;;1.30;72.25;102171.84;4957187;28;45358;-70
2023/01/29 08:06:03;;;;;;;;;59.50;48.50;;;;;1.34;72.40;102171.91;4972614;28;46880;-70
2023/01/29 08:08:29;;;;;;;;;59.75;48.50;;;;;1.37;72.53;102169.38;4973006;27;45445;-70
2023/01/29 08:10:54;;;;;;;;;63.75;52.25;;;;;1.39;72.36;102176.34;4972618;28;45478;-69
2023/01/29 08:13:19;;;;;;;;;69.75;56.25;;;;;1.35;72.03;102160.69;4971916;28;45272;-67
2023/01/29 08:15:45;;;;;;;;;62.00;50.75;;;;;1.44;72.01;102184.25;4970681;28;46040;-69
2023/01/29 08:18:11;;;;;;;;;60.00;51.25;;;;;1.44;71.96;102171.28;4966376;28;45383;-69
2023/01/29 08:20:36;;;;;;;;;62.50;52.75;;;;;1.46;71.92;102179.97;4971449;28;45271;-69
2023/01/29 08:23:05;;;;;;;;;53.00;45.50;;;;;1.49;71.79;102179.16;4972763;28;45615;-70
2023/01/29 08:25:31;;;;;;;;;58.75;50.25;;;;;1.51;72.05;102173.16;4972111;28;46305;-69
2023/01/29 08:27:58;;;;;;;;;63.00;51.75;;;;;1.54;72.25;102170.66;4975073;28;45374;-68
2023/01/29 08:30:26;;;;;;;;;68.00;51.75;;;;;1.58;71.66;102169.88;4970400;28;45356;-70
2023/01/29 08:32:51;;;;;;;;;65.75;53.25;;;;;1.63;71.94;102175.19;4985861;28;45488;-69
2023/01/29 08:35:17;;;;;;;;;57.75;50.25;;;;;1.62;71.02;102159.56;4972940;28;46124;-69
2023/01/29 08:37:42;;;;;;;;;60.75;49.50;;;;;1.69;71.74;102166.63;4969529;28;45283;-70
2023/01/29 08:40:09;;;;;;;;;64.50;53.25;;;;;1.73;71.09;102164.16;4953961;28;53266;-69
2023/01/29 08:42:35;;;;;;;;;67.50;55.25;;;;;1.74;70.60;102165.91;4953791;28;45646;-69
2023/01/29 08:45:00;;;;;;;;;67.00;54.25;;;;;1.73;71.22;102164.16;4952863;28;45335;-69
2023/01/29 08:47:26;;;;;;;;;68.25;55.50;;;;;1.70;71.62;102158.91;4966644;28;45527;-70
2023/01/29 08:49:51;;;;;;;;;61.00;49.75;;;;;1.89;71.25;102180.91;4972097;28;45358;-69
2023/01/29 08:52:16;;;;;;;;;65.25;54.00;;;;;1.89;70.43;102185.25;4971862;28;46910;-68
2023/01/29 08:54:42;;;;;;;;;67.75;54.25;;;;;1.87;70.96;102186.94;4965079;28;45941;-69
2023/01/29 08:57:07;;;;;;;;;58.25;49.00;;;;;1.88;70.11;102192.16;4963928;28;45544;-69
2023/01/29 08:59:33;;;;;;;;;64.50;53.00;;;;;1.92;71.13;102207.78;4972558;28;45335;-70
2023/01/29 09:01:58;;;;;;;;;69.25;54.75;;;;;1.95;70.42;102211.34;4970886;28;45644;-69
2023/01/29 09:04:24;;;;;;;;;63.25;51.25;;;;;2.02;71.04;102220.13;4971626;28;46623;-69
2023/01/29 09:06:49;;;;;;;;;63.75;53.25;;;;;2.06;70.82;102218.47;4971001;28;45547;-69
2023/01/29 09:09:14;;;;;;;;;69.75;54.50;;;;;2.07;70.25;102217.63;4972455;28;45366;-70
2023/01/29 09:11:39;;;;;;;;;62.00;52.25;;;;;2.03;70.41;102208.88;4973303;28;45684;-69
2023/01/29 09:14:05;;;;;;;;;64.00;52.00;;;;;2.08;70.59;102219.38;4972987;28;46079;-67
2023/01/29 09:16:30;;;;;;;;;65.25;53.50;;;;;2.10;70.23;102215.97;4971899;28;45459;-69
2023/01/29 09:18:55;;;;;;;;;67.75;53.50;;;;;2.10;70.92;102208.19;4961202;28;54300;-71
2023/01/29 09:21:21;;;;;;;;;67.00;53.75;;;;;2.17;70.67;102215.28;4955208;28;45535;-68
2023/01/29 09:23:46;;;;;;;;;69.50;55.50;;;;;2.19;70.07;102216.19;4974861;27;46445;-70
2023/01/29 09:26:12;;;;;;;;;66.75;53.50;;;;;2.22;70.24;102217.09;4974152;28;45425;-68
2023/01/29 09:28:37;;;;;;;;;69.50;54.75;;;;;2.23;70.15;102208.47;4975131;28;45298;-70
2023/01/29 09:31:03;;;;;;;;;67.50;56.00;;;;;2.24;70.76;102205.88;4973432;28;45295;-69
2023/01/29 09:33:29;;;;;;;;;67.00;53.75;;;;;2.24;70.89;102210.22;4974315;28;46101;-69
2023/01/29 09:35:55;;;;;;;;;64.50;53.00;;;;;2.22;69.79;102199.78;4973524;28;45530;-70
2023/01/29 09:38:20;;;;;;;;;68.50;56.00;;;;;2.26;70.47;102201.59;4965769;28;45555;-68
2023/01/29 09:41:07;;;;;;;;;69.00;55.75;;;;;2.35;70.22;102208.72;4955506;28;45363;-71
2023/01/29 09:43:49;;;;;;;;;70.50;57.75;;;;;2.35;70.14;102200.91;4954394;28;46356;-72
2023/01/29 09:46:17;;;;;;;;;66.75;56.00;;;;;2.42;70.39;102205.41;4972104;28;45527;-70
2023/01/29 09:48:45;;;;;;;;;66.75;54.50;;;;;2.41;70.28;102202.75;4974834;28;45342;-72
2023/01/29 09:51:27;;;;;;;;;66.75;54.50;;;;;2.44;70.11;102208.00;4974609;28;45242;-70
2023/01/29 09:54:11;;;;;;;;;74.50;59.00;;;;;2.46;70.36;102202.00;4974969;28;45412;-70
2023/01/29 09:56:37;;;;;;;;;69.25;56.75;;;;;2.46;69.97;102199.41;4975657;28;45302;-70
2023/01/29 09:59:03;;;;;;;;;70.00;56.25;;;;;2.52;69.57;102211.63;4974761;28;45367;-69
2023/01/29 10:01:51;;;;;;;;;72.25;56.25;;;;;2.49;69.78;102208.97;4974325;28;45548;-71
2023/01/29 10:04:25;;;;;;;;;67.75;55.50;;;;;2.58;68.85;102216.94;4960019;28;46336;-70
2023/01/29 10:07:00;;;;;;;;;67.75;56.00;;;;;2.62;69.66;102217.88;4953150;28;46151;-69
2023/01/29 10:09:40;;;;;;;;;68.00;55.50;;;;;2.69;69.16;102211.09;4954328;28;45332;-71
2023/01/29 10:12:29;;;;;;;;;75.00;59.00;;;;;2.75;69.69;102206.88;4963877;28;45300;-69
2023/01/29 10:15:16;;;;;;;;;68.00;55.00;;;;;2.85;69.64;102212.25;4971972;28;46567;-70
2023/01/29 10:18:13;;;;;;;;;68.25;55.75;;;;;2.89;68.88;102198.44;4974028;28;45429;-69
2023/01/29 10:20:52;;;;;;;;;64.25;53.00;;;;;3.04;68.91;102193.50;4974005;28;45330;-70
2023/01/29 10:23:24;;;;;;;;;72.50;57.75;;;;;3.12;68.22;102192.78;4973650;28;45315;-70
2023/01/29 10:25:50;;;;;;;;;68.00;56.00;;;;;3.14;68.47;102180.66;4953745;28;46031;-69
2023/01/29 10:28:25;;;;;;;;;65.75;53.75;;;;;3.27;67.86;102194.75;4954613;28;45431;-71
2023/01/29 10:30:57;;;;;;;;;67.50;55.25;;;;;3.33;67.58;102182.75;4972173;28;45414;-69
2023/01/29 10:33:30;;;;;;;;;63.50;52.00;;;;;3.40;67.55;102182.84;4973260;28;45291;-72
2023/01/29 10:36:01;;;;;;;;;66.00;55.00;;;;;3.44;67.99;102177.69;4956648;28;46173;-72
2023/01/29 10:38:33;;;;;;;;;66.25;55.00;;;;;3.49;67.15;102175.16;4956545;28;45535;-72
2023/01/29 10:41:10;;;;;;;;;64.75;51.75;;;;;3.55;67.62;102176.97;5054724;27;45151;-71
2023/01/29 10:43:47;;;;;;;;;64.00;52.25;;;;;3.59;66.98;102161.44;4954930;28;45445;-70
2023/01/29 10:46:37;;;;;;;;;64.25;52.00;;;;;3.63;66.73;102147.63;4955153;28;45555;-69
2023/01/29 10:49:26;;;;;;;;;69.00;54.50;;;;;3.71;66.58;102157.25;4955126;28;45347;-71
2023/01/29 10:52:12;;;;;;;;;66.50;52.25;;;;;3.77;66.62;102152.13;4953522;28;45356;-70
2023/01/29 10:55:00;;;;;;;;;63.75;53.00;;;;;3.84;66.29;102155.72;4963687;28;45406;-70
2023/01/29 10:57:34;;;;;;;;;70.00;57.00;;;;;3.88;66.06;102153.16;4972000;28;45492;-70
2023/01/29 11:00:20;;;;;;;;;60.25;50.50;;;;;3.97;66.76;102149.81;4968276;28;45592;-68
2023/01/29 11:02:49;;;;;;;;;67.00;54.75;;;;;4.07;66.15;102154.28;4973702;28;45220;-69
2023/01/29 11:05:35;;;;;;;;;67.75;53.50;;;;;4.15;65.64;102146.53;4975701;28;45450;-69
2023/01/29 11:08:13;;;;;;;;;63.50;52.50;;;;;4.23;65.66;102139.69;4978340;28;45377;-71
2023/01/29 11:10:57;;;;;;;;;65.25;52.50;;;;;4.43;65.42;102145.97;4975897;28;45429;-68
2023/01/29 11:13:32;;;;;;;;;61.00;50.25;;;;;4.60;65.16;102144.41;4977234;28;45343;-72
2023/01/29 11:15:58;;;;;;;;;61.00;50.75;;;;;4.76;64.66;102142.84;4971338;28;45335;-72
2023/01/29 11:18:23;;;;;;;;;63.00;50.00;;;;;4.94;64.73;102131.72;4972706;28;45601;-72
2023/01/29 11:21:01;;;;;;;;;66.50;52.25;;;;;5.11;64.28;102125.75;4970251;28;50781;-68
2023/01/29 11:23:32;;;;;;;;;61.75;50.00;;;;;5.21;63.46;102124.94;4971695;28;45334;-72
2023/01/29 11:25:59;;;;;;;;;60.25;47.25;;;;;5.26;63.57;102117.13;4973206;28;45648;-70
2023/01/29 11:28:49;;;;;;;;;60.25;49.50;;;;;5.41;63.35;102126.81;4974000;28;46156;-68
2023/01/29 11:31:36;;;;;;;;;38.25;35.25;;;;;5.47;62.33;102123.38;4972474;28;45356;-68
2023/01/29 11:34:19;;;;;;;;;36.00;33.25;;;;;5.48;61.40;102119.91;4974353;28;45363;-68
2023/01/29 11:36:45;;;;;;;;;42.75;36.50;;;;;5.45;61.45;102117.28;4971295;28;45695;-70
2023/01/29 11:39:17;;;;;;;;;34.75;33.00;;;;;5.48;61.13;102118.16;4972986;28;46559;-70
2023/01/29 11:41:57;;;;;;;;;33.75;33.25;;;;;5.41;60.41;102112.03;4972802;28;45404;-70
2023/01/29 11:44:32;;;;;;;;;27.75;27.50;;;;;5.31;60.44;102102.41;4969705;28;45340;-68
2023/01/29 11:47:12;;;;;;;;;26.75;26.00;;;;;5.21;60.70;102111.00;4969438;28;45470;-69
2023/01/29 11:49:39;;;;;;;;;30.75;30.75;;;;;5.22;60.72;102104.94;4972634;28;45336;-69
2023/01/29 11:52:08;;;;;;;;;28.00;28.00;;;;;5.17;61.15;102106.63;4972543;28;45668;-70
2023/01/29 11:54:39;;;;;;;;;42.00;38.00;;;;;5.20;60.73;102098.84;4972155;28;45473;-73
2023/01/29 11:57:23;;;;;;;;;28.50;28.00;;;;;5.23;60.84;102101.47;4972553;28;45433;-67
2023/01/29 11:59:51;;;;;;;;;38.50;34.25;;;;;5.16;60.01;102094.47;4972284;28;46157;-74
2023/01/29 12:02:26;;;;;;;;;34.50;33.50;;;;;5.16;60.80;102110.13;4972302;28;45409;-68